createdAt,value
2023-02-19T00:00:58.649Z,100235.00
2023-02-19T00:03:25.954Z,100232.75
2023-02-19T00:05:53.321Z,100231.47
2023-02-19T00:08:20.614Z,100226.44
2023-02-19T00:10:47.943Z,100229.44
2023-02-19T00:13:15.239Z,100223.09
2023-02-19T00:15:42.555Z,100229.31
2023-02-19T00:18:11.216Z,100229.13
2023-02-19T00:20:38.477Z,100223.84
2023-02-19T00:23:05.769Z,100220.09
2023-02-19T00:25:33.074Z,100219.91
2023-02-19T00:28:00.347Z,100219.91
2023-02-19T00:30:27.727Z,100221.19
2023-02-19T00:32:55.403Z,100215.38
2023-02-19T00:35:24.057Z,100225.25
2023-02-19T00:37:51.361Z,100215.19
2023-02-19T00:40:18.701Z,100220.53
2023-02-19T00:42:46.025Z,100214.09
2023-02-19T00:45:13.308Z,100202.50
2023-02-19T00:47:40.618Z,100213.03
2023-02-19T00:50:07.986Z,100202.41
2023-02-19T00:52:37.052Z,100206.16
2023-02-19T00:55:04.536Z,100213.53
2023-02-19T00:57:31.819Z,100205.09
2023-02-19T00:59:59.124Z,100197.16
2023-02-19T01:02:26.817Z,100198.34
2023-02-19T01:04:54.173Z,100194.25
2023-02-19T01:07:21.510Z,100194.59
2023-02-19T01:09:50.152Z,100193.63
2023-02-19T01:12:17.435Z,100193.63
2023-02-19T01:14:44.870Z,100180.53
2023-02-19T01:17:12.174Z,100174.13
2023-02-19T01:19:39.503Z,100179.16
2023-02-19T01:22:06.771Z,100156.84
2023-02-19T01:24:34.060Z,100161.34
2023-02-19T01:27:02.707Z,100152.13
2023-02-19T01:29:30.026Z,100160.91
2023-02-19T01:31:57.780Z,100157.38
2023-02-19T01:34:26.928Z,100158.78
2023-02-19T01:36:54.228Z,100145.56
2023-02-19T01:39:21.553Z,100137.72
2023-02-19T01:41:48.849Z,100126.72
2023-02-19T01:44:34.815Z,100132.16
2023-02-19T01:47:03.390Z,100116.09
2023-02-19T01:49:32.634Z,100118.47
2023-02-19T01:52:01.412Z,100118.34
2023-02-19T01:54:29.922Z,100120.59
2023-02-19T01:56:58.346Z,100115.84
2023-02-19T01:59:25.800Z,100109.00
2023-02-19T02:01:53.322Z,100107.28
2023-02-19T02:04:21.985Z,100116.63
2023-02-19T02:06:51.086Z,100106.84
2023-02-19T02:09:36.804Z,100111.38
2023-02-19T02:12:04.473Z,100093.34
2023-02-19T02:14:33.461Z,100105.25
2023-02-19T02:17:06.985Z,100099.13
2023-02-19T02:19:47.142Z,100097.44
2023-02-19T02:22:19.260Z,100093.34
2023-02-19T02:25:14.431Z,100089.72
2023-02-19T02:27:50.067Z,100087.66
2023-02-19T02:30:26.966Z,100081.88
2023-02-19T02:32:57.506Z,100079.97
2023-02-19T02:35:26.607Z,100086.06
2023-02-19T02:37:56.453Z,100082.22
2023-02-19T02:40:24.352Z,100074.44
2023-02-19T02:42:51.646Z,100060.56
2023-02-19T02:45:37.938Z,100066.53
2023-02-19T02:48:09.775Z,100070.59
2023-02-19T02:50:39.370Z,100057.97
2023-02-19T02:53:27.405Z,100062.91
2023-02-19T02:55:55.625Z,100053.50
2023-02-19T02:58:24.298Z,100050.06
2023-02-19T03:01:14.102Z,100046.09
2023-02-19T03:03:43.496Z,100040.44
2023-02-19T03:06:13.045Z,100019.34
2023-02-19T03:08:42.876Z,100033.22
2023-02-19T03:11:28.868Z,100035.28
2023-02-19T03:14:17.781Z,100030.03
2023-02-19T03:17:04.829Z,100029.91
2023-02-19T03:19:36.226Z,100025.63
2023-02-19T03:22:10.780Z,100022.44
2023-02-19T03:24:59.878Z,100023.31
2023-02-19T03:27:28.535Z,100007.13
2023-02-19T03:29:58.234Z,100013.13
2023-02-19T03:32:30.770Z,100005.94
2023-02-19T03:35:01.033Z,100012.25
2023-02-19T03:37:30.343Z,100010.22
2023-02-19T03:39:58.069Z,100005.84
2023-02-19T03:42:30.999Z,100002.31
2023-02-19T03:45:13.175Z,100004.75
2023-02-19T03:47:49.787Z,100008.63
2023-02-19T03:50:19.437Z,100000.78
2023-02-19T03:52:53.344Z,99993.31
2023-02-19T03:55:25.802Z,99989.13
2023-02-19T03:57:55.234Z,99992.03
2023-02-19T04:00:25.815Z,99977.91
2023-02-19T04:02:57.463Z,99972.13
2023-02-19T04:05:26.842Z,99969.44
2023-02-19T04:07:56.043Z,99974.13
2023-02-19T04:10:24.190Z,99971.91
2023-02-19T04:12:54.085Z,99967.53
2023-02-19T04:15:23.748Z,99973.41
2023-02-19T04:17:54.352Z,99959.69
2023-02-19T04:20:23.567Z,99967.41
2023-02-19T04:22:50.935Z,99967.41
2023-02-19T04:25:18.397Z,99966.84
2023-02-19T04:27:46.689Z,99965.81
2023-02-19T04:30:14.783Z,99951.22
2023-02-19T04:32:42.068Z,99950.91
2023-02-19T04:35:09.724Z,99958.84
2023-02-19T04:37:38.360Z,99946.44
2023-02-19T04:40:06.310Z,99957.88
2023-02-19T04:42:33.562Z,99948.66
2023-02-19T04:45:00.857Z,99945.69
2023-02-19T04:47:28.124Z,99944.72
2023-02-19T04:49:55.388Z,99941.28
2023-02-19T04:52:22.752Z,99923.94
2023-02-19T04:54:51.453Z,99914.97
2023-02-19T04:57:18.736Z,99916.56
2023-02-19T04:59:47.022Z,99921.91
2023-02-19T05:02:14.337Z,99931.22
2023-02-19T05:04:42.028Z,99937.75
2023-02-19T05:07:09.641Z,99943.44
2023-02-19T05:09:36.931Z,99949.84
2023-02-19T05:12:05.692Z,99938.28
2023-02-19T05:14:32.961Z,99934.88
2023-02-19T05:17:00.255Z,99945.00
2023-02-19T05:19:27.604Z,99961.06
2023-02-19T05:21:54.916Z,99962.00
2023-02-19T05:24:24.288Z,99960.34
2023-02-19T05:26:51.586Z,99956.47
2023-02-19T05:29:20.233Z,99953.25
2023-02-19T05:31:48.726Z,99954.75
2023-02-19T05:34:16.063Z,99951.31
2023-02-19T05:36:43.350Z,99955.69
2023-02-19T05:39:12.312Z,99959.03
2023-02-19T05:41:39.955Z,99961.38
2023-02-19T05:44:07.224Z,99968.88
2023-02-19T05:46:35.912Z,99959.00
2023-02-19T05:49:03.298Z,99953.66
2023-02-19T05:51:30.999Z,99955.72
2023-02-19T05:53:58.426Z,99956.34
2023-02-19T05:56:30.826Z,99960.75
2023-02-19T05:58:58.321Z,99963.31
2023-02-19T06:01:27.971Z,99961.38
2023-02-19T06:03:57.727Z,99966.72
2023-02-19T06:06:25.544Z,99989.28
2023-02-19T06:08:52.842Z,99984.59
2023-02-19T06:11:20.627Z,99977.72
2023-02-19T06:13:49.307Z,99980.28
2023-02-19T06:16:17.563Z,99981.28
2023-02-19T06:18:44.929Z,99988.13
2023-02-19T06:21:13.990Z,99995.16
2023-02-19T06:23:41.641Z,99997.13
2023-02-19T06:26:10.124Z,100006.97
2023-02-19T06:28:37.718Z,100000.47
2023-02-19T06:31:05.157Z,100009.78
2023-02-19T06:33:32.840Z,100004.31
2023-02-19T06:36:00.788Z,100009.22
2023-02-19T06:38:29.787Z,100012.94
2023-02-19T06:41:00.736Z,100019.72
2023-02-19T06:43:28.082Z,100011.28
2023-02-19T06:45:55.407Z,100018.13
2023-02-19T06:48:22.682Z,100012.56
2023-02-19T06:50:49.973Z,100024.09
2023-02-19T06:53:17.262Z,100019.31
2023-02-19T06:55:45.898Z,100023.56
2023-02-19T06:58:13.212Z,100025.59
2023-02-19T07:00:40.827Z,100024.13
2023-02-19T07:03:08.105Z,100028.38
2023-02-19T07:05:35.382Z,100038.44
2023-02-19T07:08:02.656Z,100039.53
2023-02-19T07:10:30.035Z,100046.59
2023-02-19T07:12:58.677Z,100048.31
2023-02-19T07:15:25.965Z,100055.69
2023-02-19T07:17:53.225Z,100062.53
2023-02-19T07:20:20.521Z,100063.28
2023-02-19T07:22:47.772Z,100068.78
2023-02-19T07:25:15.115Z,100070.78
2023-02-19T07:27:42.386Z,100072.81
2023-02-19T07:30:11.795Z,100073.47
2023-02-19T07:32:41.564Z,100076.66
2023-02-19T07:35:09.111Z,100092.72
2023-02-19T07:37:36.734Z,100104.47
2023-02-19T07:40:04.258Z,100123.69
2023-02-19T07:42:31.580Z,100125.41
2023-02-19T07:45:00.596Z,100131.94
2023-02-19T07:47:29.586Z,100136.16
2023-02-19T07:49:56.902Z,100146.53
2023-02-19T07:52:24.300Z,100156.47
2023-02-19T07:54:51.655Z,100152.81
2023-02-19T07:57:18.939Z,100169.16
2023-02-19T07:59:46.231Z,100171.03
2023-02-19T08:02:34.332Z,100173.41
2023-02-19T08:05:03.465Z,100177.34
2023-02-19T08:07:33.712Z,100179.91
2023-02-19T08:10:15.003Z,100183.34
2023-02-19T08:13:00.245Z,100201.50
2023-02-19T08:15:27.515Z,100210.09
2023-02-19T08:17:54.806Z,100206.81
2023-02-19T08:20:23.424Z,100210.19
2023-02-19T08:22:51.012Z,100215.66
2023-02-19T08:25:18.398Z,100221.34
2023-02-19T08:27:45.902Z,100226.44
2023-02-19T08:30:13.544Z,100252.84
2023-02-19T08:32:40.834Z,100267.13
2023-02-19T08:35:08.347Z,100279.16
2023-02-19T08:37:36.945Z,100291.41
2023-02-19T08:40:04.470Z,100298.22
2023-02-19T08:42:31.818Z,100303.53
2023-02-19T08:44:59.082Z,100296.06
2023-02-19T08:47:26.439Z,100304.25
2023-02-19T08:49:53.741Z,100321.91
2023-02-19T08:52:21.043Z,100335.41
2023-02-19T08:54:49.628Z,100341.50
2023-02-19T08:57:17.154Z,100351.16
2023-02-19T08:59:44.460Z,100357.97
2023-02-19T09:02:12.774Z,100377.06
2023-02-19T09:04:40.259Z,100385.78
2023-02-19T09:07:10.859Z,100389.72
2023-02-19T09:09:38.255Z,100399.94
2023-02-19T09:12:07.538Z,100409.63
2023-02-19T09:14:35.347Z,100418.34
2023-02-19T09:17:03.390Z,100419.03
2023-02-19T09:19:31.043Z,100432.75
2023-02-19T09:21:58.315Z,100441.28
2023-02-19T09:24:25.958Z,100446.72
2023-02-19T09:26:54.092Z,100444.28
2023-02-19T09:29:23.251Z,100452.63
2023-02-19T09:31:50.854Z,100467.25
2023-02-19T09:34:18.248Z,100478.44
2023-02-19T09:36:45.528Z,100481.19
2023-02-19T09:39:13.095Z,100487.78
2023-02-19T09:41:46.399Z,100501.13
2023-02-19T09:44:15.362Z,100514.91
2023-02-19T09:46:46.075Z,100524.63
2023-02-19T09:49:15.446Z,100530.91
2023-02-19T09:51:45.006Z,100533.84
2023-02-19T09:54:15.863Z,100537.81
2023-02-19T09:56:43.222Z,100535.31
2023-02-19T09:59:16.692Z,100534.06
2023-02-19T10:01:45.985Z,100541.88
2023-02-19T10:04:13.254Z,100535.28
2023-02-19T10:06:40.501Z,100553.16
2023-02-19T10:09:14.671Z,100553.69
2023-02-19T10:11:42.673Z,100554.84
2023-02-19T10:15:32.593Z,100560.22
2023-02-19T10:18:01.358Z,100573.38
2023-02-19T10:20:28.949Z,100582.97
2023-02-19T10:23:02.153Z,100584.28
2023-02-19T10:25:30.964Z,100586.53
2023-02-19T10:27:59.660Z,100581.31
2023-02-19T10:30:31.044Z,100594.91
2023-02-19T10:33:05.368Z,100597.13
2023-02-19T10:35:37.020Z,100593.78
2023-02-19T10:38:08.247Z,100599.38
2023-02-19T10:40:35.650Z,100595.19
2023-02-19T10:43:05.686Z,100615.31
2023-02-19T10:45:40.542Z,100615.16
2023-02-19T10:48:24.671Z,100615.38
2023-02-19T10:50:57.116Z,100625.13
2023-02-19T10:53:36.531Z,100620.97
2023-02-19T10:56:08.753Z,100632.28
2023-02-19T10:58:37.797Z,100633.34
2023-02-19T11:01:15.526Z,100633.84
2023-02-19T11:03:43.368Z,100634.47
2023-02-19T11:06:14.167Z,100639.16
2023-02-19T11:08:49.746Z,100650.59
2023-02-19T11:11:26.889Z,100647.50
2023-02-19T11:13:56.030Z,100658.81
2023-02-19T11:16:25.542Z,100656.47
2023-02-19T11:18:57.466Z,100661.59
2023-02-19T11:21:28.569Z,100660.63
2023-02-19T11:23:56.515Z,100669.19
2023-02-19T11:26:26.219Z,100671.75
2023-02-19T11:28:57.819Z,100679.16
2023-02-19T11:31:28.830Z,100682.09
2023-02-19T11:33:58.319Z,100680.16
2023-02-19T11:36:30.393Z,100676.47
2023-02-19T11:38:59.804Z,100684.38
2023-02-19T11:41:48.480Z,100691.31
2023-02-19T11:44:31.018Z,100691.34
2023-02-19T11:47:19.143Z,100689.38
2023-02-19T11:49:55.376Z,100693.00
2023-02-19T11:52:35.156Z,100702.53
2023-02-19T11:55:14.784Z,100701.22
2023-02-19T11:57:45.118Z,100695.44
2023-02-19T12:00:30.884Z,100703.97
2023-02-19T12:03:23.128Z,100709.03
2023-02-19T12:06:13.428Z,100715.94
2023-02-19T12:09:01.884Z,100718.16
2023-02-19T12:11:53.508Z,100725.56
2023-02-19T12:14:48.681Z,100729.59
2023-02-19T12:17:25.919Z,100724.41
2023-02-19T12:20:07.839Z,100741.41
2023-02-19T12:22:45.676Z,100744.19
2023-02-19T12:25:38.636Z,100736.94
2023-02-19T12:28:20.768Z,100734.94
2023-02-19T12:31:03.268Z,100744.94
2023-02-19T12:33:54.499Z,100741.91
2023-02-19T12:36:32.456Z,100745.59
2023-02-19T12:39:07.513Z,100734.66
2023-02-19T12:41:45.279Z,100725.66
2023-02-19T12:44:18.012Z,100724.41
2023-02-19T12:46:50.388Z,100724.97
2023-02-19T12:49:25.448Z,100724.56
2023-02-19T12:51:59.267Z,100731.56
2023-02-19T12:54:29.110Z,100728.59
2023-02-19T12:57:02.501Z,100729.50
2023-02-19T12:59:34.412Z,100720.91
2023-02-19T13:02:06.966Z,100728.16
2023-02-19T13:04:43.349Z,100735.63
2023-02-19T13:07:15.885Z,100738.41
2023-02-19T13:09:49.814Z,100738.47
2023-02-19T13:12:22.968Z,100747.28
2023-02-19T13:14:57.734Z,100756.19
2023-02-19T13:17:30.264Z,100762.16
2023-02-19T13:20:01.264Z,100770.94
2023-02-19T13:22:55.896Z,100762.97
2023-02-19T13:28:33.331Z,100754.19
2023-02-19T13:31:17.186Z,100756.28
2023-02-19T13:33:55.085Z,100750.31
2023-02-19T13:36:27.058Z,100740.97
2023-02-19T13:38:58.043Z,100755.81
2023-02-19T13:41:30.767Z,100766.75
2023-02-19T13:44:02.656Z,100772.94
2023-02-19T13:46:39.867Z,100772.16
2023-02-19T13:49:43.191Z,100781.81
2023-02-19T13:52:38.005Z,100780.56
2023-02-19T13:55:46.661Z,100782.78
2023-02-19T13:58:40.600Z,100789.84
2023-02-19T14:01:10.883Z,100777.91
2023-02-19T14:03:48.286Z,100776.75
2023-02-19T14:06:15.807Z,100786.41
2023-02-19T14:08:55.989Z,100768.94
2023-02-19T14:11:56.598Z,100782.78
2023-02-19T14:14:35.125Z,100783.00
2023-02-19T14:17:08.360Z,100786.09
2023-02-19T14:19:51.545Z,100790.47
2023-02-19T14:23:10.676Z,100794.44
2023-02-19T14:25:45.237Z,100807.97
2023-02-19T14:28:22.407Z,100791.47
2023-02-19T14:30:53.514Z,100805.56
2023-02-19T14:33:24.386Z,100794.25
2023-02-19T14:35:55.699Z,100791.16
2023-02-19T14:38:26.958Z,100805.56
2023-02-19T14:40:56.276Z,100806.38
2023-02-19T14:43:26.078Z,100804.28
2023-02-19T14:45:59.417Z,100818.03
2023-02-19T14:48:31.887Z,100822.13
2023-02-19T14:51:04.288Z,100834.28
2023-02-19T14:53:38.240Z,100822.09
2023-02-19T14:56:08.636Z,100823.81
2023-02-19T14:58:36.898Z,100829.03
2023-02-19T15:01:09.478Z,100835.91
2023-02-19T15:03:38.475Z,100837.91
2023-02-19T15:06:09.399Z,100837.28
2023-02-19T15:08:44.611Z,100847.53
2023-02-19T15:11:16.238Z,100854.78
2023-02-19T15:13:45.768Z,100864.44
2023-02-19T15:16:21.430Z,100846.47
2023-02-19T15:18:51.623Z,100850.00
2023-02-19T15:21:25.332Z,100857.50
2023-02-19T15:23:55.806Z,100854.25
2023-02-19T15:26:28.068Z,100850.00
2023-02-19T15:29:00.597Z,100864.59
2023-02-19T15:31:29.786Z,100863.94
2023-02-19T15:33:57.334Z,100862.94
2023-02-19T15:36:31.695Z,100864.59
2023-02-19T15:39:02.167Z,100866.81
2023-02-19T15:41:34.331Z,100865.81
2023-02-19T15:44:22.364Z,100863.91
2023-02-19T15:46:51.601Z,100883.00
2023-02-19T15:49:24.645Z,100875.75
2023-02-19T15:51:57.701Z,100890.75
2023-02-19T15:54:31.216Z,100887.88
2023-02-19T15:57:04.713Z,100893.53
2023-02-19T15:59:38.895Z,100884.53
2023-02-19T16:02:13.079Z,100886.00
2023-02-19T16:04:41.550Z,100891.03
2023-02-19T16:07:25.069Z,100883.69
2023-02-19T16:10:07.874Z,100886.91
2023-02-19T16:12:35.361Z,100889.88
2023-02-19T16:15:13.319Z,100890.56
2023-02-19T16:17:44.636Z,100891.00
2023-02-19T16:20:20.715Z,100891.13
2023-02-19T16:22:48.448Z,100888.78
2023-02-19T16:25:29.441Z,100885.31
2023-02-19T16:27:57.092Z,100890.13
2023-02-19T16:30:29.643Z,100889.88
2023-02-19T16:33:32.864Z,100894.50
2023-02-19T16:36:17.187Z,100896.25
2023-02-19T16:38:59.964Z,100906.81
2023-02-19T16:41:27.442Z,100932.09
2023-02-19T16:43:54.883Z,100938.41
2023-02-19T16:46:22.277Z,100940.09
2023-02-19T16:48:51.973Z,100954.13
2023-02-19T16:51:31.310Z,100955.84
2023-02-19T16:53:58.679Z,100951.06
2023-02-19T16:56:26.086Z,100965.09
2023-02-19T16:58:53.542Z,100972.16
2023-02-19T17:01:21.302Z,100972.59
2023-02-19T17:03:49.142Z,100976.19
2023-02-19T17:06:18.319Z,100988.09
2023-02-19T17:08:46.013Z,100987.19
2023-02-19T17:11:15.382Z,101000.06
2023-02-19T17:13:43.293Z,101006.94
2023-02-19T17:16:18.181Z,101020.41
2023-02-19T17:18:45.592Z,101008.75
2023-02-19T17:21:16.646Z,101012.59
2023-02-19T17:23:45.346Z,101007.75
2023-02-19T17:26:14.920Z,101012.56
2023-02-19T17:28:42.456Z,101019.44
2023-02-19T17:31:10.400Z,101017.91
2023-02-19T17:33:38.141Z,101018.72
2023-02-19T17:36:06.720Z,101024.06
2023-02-19T17:38:34.309Z,101026.91
2023-02-19T17:41:03.236Z,101027.56
2023-02-19T17:43:30.723Z,101032.00
2023-02-19T17:45:58.182Z,101039.16
2023-02-19T17:48:25.597Z,101050.09
2023-02-19T17:50:53.109Z,101050.34
2023-02-19T17:53:20.614Z,101043.47
2023-02-19T17:55:48.021Z,101052.91
2023-02-19T17:58:16.750Z,101056.28
2023-02-19T18:00:44.143Z,101058.63
2023-02-19T18:03:11.547Z,101072.53
2023-02-19T18:05:38.987Z,101062.81
2023-02-19T18:08:06.437Z,101056.81
2023-02-19T18:10:33.833Z,101056.38
2023-02-19T18:13:01.376Z,101062.56
2023-02-19T18:15:30.180Z,101068.94
2023-02-19T18:17:58.131Z,101061.78
2023-02-19T18:20:28.372Z,101075.91
2023-02-19T18:22:57.197Z,101072.22
2023-02-19T18:25:25.331Z,101070.59
2023-02-19T18:27:53.007Z,101078.84
2023-02-19T18:30:22.970Z,101080.06
2023-02-19T18:32:52.222Z,101074.66
2023-02-19T18:35:21.260Z,101089.34
2023-02-19T18:37:51.137Z,101087.06
2023-02-19T18:40:19.597Z,101091.00
2023-02-19T18:42:47.059Z,101090.56
2023-02-19T18:45:14.490Z,101085.94
2023-02-19T18:47:42.185Z,101092.53
2023-02-19T18:50:11.846Z,101093.94
2023-02-19T18:52:39.288Z,101091.06
2023-02-19T18:55:07.720Z,101099.28
2023-02-19T18:57:35.100Z,101094.41
2023-02-19T19:00:02.535Z,101096.38
2023-02-19T19:02:42.688Z,101092.03
2023-02-19T19:05:17.725Z,101092.03
2023-02-19T19:07:45.120Z,101093.00
2023-02-19T19:10:12.671Z,101092.34
2023-02-19T19:12:40.147Z,101093.19
2023-02-19T19:15:08.080Z,101105.78
2023-02-19T19:17:35.532Z,101105.06
2023-02-19T19:20:05.535Z,101112.91
2023-02-19T19:22:34.219Z,101101.56
2023-02-19T19:25:03.275Z,101121.44
2023-02-19T19:27:30.654Z,101117.06
2023-02-19T19:29:58.094Z,101115.97
2023-02-19T19:32:25.522Z,101109.78
2023-02-19T19:34:52.928Z,101111.50
2023-02-19T19:37:20.376Z,101108.59
2023-02-19T19:39:49.084Z,101109.53
2023-02-19T19:42:16.778Z,101114.44
2023-02-19T19:44:45.117Z,101105.78
2023-02-19T19:47:12.520Z,101119.47
2023-02-19T19:49:40.988Z,101114.03
2023-02-19T19:52:08.856Z,101112.31
2023-02-19T19:54:38.272Z,101113.31
2023-02-19T19:57:07.103Z,101114.28
2023-02-19T19:59:34.500Z,101115.56
2023-02-19T20:02:03.127Z,101110.50
2023-02-19T20:04:35.650Z,101120.41
2023-02-19T20:07:07.926Z,101124.59
2023-02-19T20:09:37.450Z,101117.25
2023-02-19T20:12:05.377Z,101113.81
2023-02-19T20:14:34.518Z,101117.97
2023-02-19T20:17:02.699Z,101122.25
2023-02-19T20:19:30.147Z,101115.41
2023-02-19T20:21:57.566Z,101115.56
2023-02-19T20:24:28.582Z,101120.00
2023-02-19T20:26:58.429Z,101118.50
2023-02-19T20:29:27.723Z,101118.19
2023-02-19T20:31:59.043Z,101115.91
2023-02-19T20:34:27.049Z,101118.56
2023-02-19T20:36:54.656Z,101105.00
2023-02-19T20:39:23.065Z,101108.72
2023-02-19T20:41:52.263Z,101108.38
2023-02-19T20:44:22.230Z,101104.38
2023-02-19T20:46:51.062Z,101113.44
2023-02-19T20:49:22.034Z,101109.72
2023-02-19T20:51:51.879Z,101123.91
2023-02-19T20:54:20.517Z,101118.47
2023-02-19T20:56:50.110Z,101127.69
2023-02-19T20:59:18.677Z,101128.88
2023-02-19T21:01:46.149Z,101136.22
2023-02-19T21:04:14.097Z,101138.06
2023-02-19T21:06:42.718Z,101143.34
2023-02-19T21:09:10.165Z,101159.63
2023-02-19T21:11:37.839Z,101161.84
2023-02-19T21:14:05.205Z,101167.75
2023-02-19T21:16:33.929Z,101162.75
2023-02-19T21:19:01.375Z,101156.19
2023-02-19T21:21:31.116Z,101170.41
2023-02-19T21:24:00.571Z,101174.19
2023-02-19T21:26:34.572Z,101172.81
2023-02-19T21:29:02.013Z,101174.44
2023-02-19T21:31:37.232Z,101173.31
2023-02-19T21:34:05.994Z,101174.66
2023-02-19T21:36:33.424Z,101185.53
2023-02-19T21:39:02.659Z,101184.69
2023-02-19T21:41:30.101Z,101183.50
2023-02-19T21:43:57.781Z,101181.78
2023-02-19T22:00:58.174Z,101178.91
2023-02-19T22:03:26.550Z,101179.56
2023-02-19T22:05:54.616Z,101174.50
2023-02-19T22:08:21.999Z,101172.63
2023-02-19T22:10:49.424Z,101184.78
2023-02-19T22:13:17.181Z,101172.38
2023-02-19T22:15:44.642Z,101169.69
2023-02-19T22:18:13.477Z,101166.97
2023-02-19T22:20:41.369Z,101175.34
2023-02-19T22:23:08.798Z,101163.72
2023-02-19T22:25:36.186Z,101159.97
2023-02-19T22:28:04.608Z,101150.09
2023-02-19T22:30:32.038Z,101143.44
2023-02-19T22:32:59.442Z,101139.88
2023-02-19T22:35:28.159Z,101144.28
2023-02-19T22:37:55.606Z,101145.19
2023-02-19T22:40:23.210Z,101145.97
2023-02-19T22:42:50.603Z,101151.63
2023-02-19T22:45:18.070Z,101134.66
2023-02-19T22:47:46.933Z,101137.75
2023-02-19T22:50:18.470Z,101142.91
2023-02-19T22:52:47.210Z,101142.56
2023-02-19T22:55:14.714Z,101146.91
2023-02-19T22:57:42.186Z,101143.59
2023-02-19T23:00:11.436Z,101137.13
2023-02-19T23:02:38.837Z,101126.50
2023-02-19T23:05:06.775Z,101121.94
2023-02-19T23:07:34.079Z,101135.03
2023-02-19T23:10:02.798Z,101130.22
2023-02-19T23:12:30.224Z,101114.19
2023-02-19T23:14:57.611Z,101113.72
2023-02-19T23:17:25.001Z,101106.88
2023-02-19T23:19:52.398Z,101105.13
2023-02-19T23:22:20.031Z,101113.41
2023-02-19T23:24:47.459Z,101111.63
2023-02-19T23:27:16.219Z,101099.09
2023-02-19T23:29:43.579Z,101089.00
2023-02-19T23:32:11.509Z,101092.53
2023-02-19T23:34:38.936Z,101090.78
2023-02-19T23:37:06.652Z,101088.03
2023-02-19T23:39:34.054Z,101091.16
2023-02-19T23:42:01.459Z,101098.22
2023-02-19T23:44:30.524Z,101097.91
2023-02-19T23:46:57.949Z,101104.13
2023-02-19T23:49:25.352Z,101101.78
2023-02-19T23:51:52.761Z,101094.75
2023-02-19T23:54:20.167Z,101082.81
2023-02-19T23:56:47.548Z,101074.25
2023-02-19T23:59:15.485Z,101055.31
